createdAt,value
2023-10-17T00:01:26.866Z,1.08
2023-10-17T00:03:22.729Z,1.08
2023-10-17T00:05:24.775Z,1.08
2023-10-17T00:07:22.344Z,1.08
2023-10-17T00:09:22.912Z,1.08
2023-10-17T00:11:22.998Z,1.08
2023-10-17T00:13:22.417Z,1.08
2023-10-17T00:15:22.124Z,1.08
2023-10-17T00:17:22.640Z,1.08
2023-10-17T00:19:22.822Z,1.08
2023-10-17T00:21:22.252Z,1.08
2023-10-17T00:23:22.949Z,1.08
2023-10-17T00:25:23.186Z,1.08
2023-10-17T00:27:23.037Z,1.08
2023-10-17T00:29:22.433Z,1.08
2023-10-17T00:31:25.460Z,1.08
2023-10-17T00:33:23.394Z,1.08
2023-10-17T00:35:22.607Z,1.08
2023-10-17T00:37:22.305Z,1.08
2023-10-17T00:39:22.941Z,1.08
2023-10-17T00:41:22.408Z,1.08
2023-10-17T00:43:23.197Z,1.08
2023-10-17T00:45:22.979Z,1.08
2023-10-17T00:47:40.533Z,1.08
2023-10-17T00:49:23.057Z,1.08
2023-10-17T00:51:22.694Z,1.08
2023-10-17T00:53:22.227Z,1.08
2023-10-17T00:55:23.145Z,1.08
2023-10-17T00:57:22.449Z,1.08
2023-10-17T00:59:21.809Z,1.08
2023-10-17T01:01:28.742Z,1.08
2023-10-17T01:03:23.082Z,1.08
2023-10-17T01:05:23.011Z,1.08
2023-10-17T01:07:23.704Z,1.08
2023-10-17T01:09:22.252Z,1.08
2023-10-17T01:11:23.022Z,1.08
2023-10-17T01:13:22.493Z,1.08
2023-10-17T01:15:22.419Z,1.08
2023-10-17T01:17:23.611Z,1.08
2023-10-17T01:19:22.486Z,1.08
2023-10-17T01:21:23.511Z,1.08
2023-10-17T01:23:22.360Z,1.08
2023-10-17T01:25:22.388Z,1.08
2023-10-17T01:27:23.436Z,1.08
2023-10-17T01:29:22.251Z,1.08
2023-10-17T01:31:23.070Z,1.08
2023-10-17T01:33:23.261Z,1.08
2023-10-17T01:35:22.325Z,1.08
2023-10-17T01:37:23.492Z,1.08
2023-10-17T01:39:22.635Z,1.08
2023-10-17T01:41:22.749Z,1.08
2023-10-17T01:43:23.114Z,1.08
2023-10-17T01:45:22.672Z,1.08
2023-10-17T01:47:22.276Z,1.08
2023-10-17T01:49:23.435Z,1.08
2023-10-17T01:51:22.691Z,1.08
2023-10-17T01:53:21.897Z,1.08
2023-10-17T01:55:22.841Z,1.08
2023-10-17T01:57:22.201Z,1.08
2023-10-17T01:59:22.701Z,1.08
2023-10-17T02:01:27.368Z,1.08
2023-10-17T02:03:22.501Z,1.08
2023-10-17T02:05:22.875Z,1.08
2023-10-17T02:07:22.148Z,1.08
2023-10-17T02:09:21.954Z,1.08
2023-10-17T02:11:22.604Z,1.08
2023-10-17T02:13:22.815Z,1.08
2023-10-17T02:15:22.400Z,1.08
2023-10-17T02:17:23.660Z,1.08
2023-10-17T02:19:23.313Z,1.08
2023-10-17T02:21:22.288Z,1.08
2023-10-17T02:23:22.513Z,1.08
2023-10-17T02:25:22.232Z,1.08
2023-10-17T02:27:22.803Z,1.08
2023-10-17T02:29:22.217Z,1.08
2023-10-17T02:31:22.865Z,1.08
2023-10-17T02:33:23.167Z,1.08
2023-10-17T02:35:22.307Z,1.08
2023-10-17T02:37:22.403Z,1.08
2023-10-17T02:39:22.985Z,1.08
2023-10-17T02:41:22.701Z,1.08
2023-10-17T02:43:22.425Z,1.08
2023-10-17T02:45:22.997Z,1.08
2023-10-17T02:47:22.791Z,1.08
2023-10-17T02:49:23.142Z,1.08
2023-10-17T02:51:22.278Z,1.08
2023-10-17T02:53:22.243Z,1.08
2023-10-17T02:55:22.186Z,1.08
2023-10-17T02:57:23.095Z,1.08
2023-10-17T02:59:22.252Z,1.08
2023-10-17T03:01:31.072Z,1.08
2023-10-17T03:03:23.247Z,1.08
2023-10-17T03:05:22.628Z,1.08
2023-10-17T03:07:22.687Z,1.08
2023-10-17T03:09:22.825Z,1.08
2023-10-17T03:11:22.827Z,1.08
2023-10-17T03:13:22.295Z,1.08
2023-10-17T03:15:23.355Z,1.08
2023-10-17T03:17:22.640Z,1.08
2023-10-17T03:19:23.693Z,1.08
2023-10-17T03:21:22.843Z,1.08
2023-10-17T03:23:22.401Z,1.08
2023-10-17T03:25:22.297Z,1.08
2023-10-17T03:27:23.287Z,1.08
2023-10-17T03:29:22.167Z,1.08
2023-10-17T03:31:23.124Z,1.08
2023-10-17T03:33:22.890Z,1.08
2023-10-17T03:35:22.742Z,1.08
2023-10-17T03:37:23.063Z,1.08
2023-10-17T03:39:22.142Z,1.08
2023-10-17T03:41:22.554Z,1.08
2023-10-17T03:43:22.243Z,1.08
2023-10-17T03:45:22.940Z,1.08
2023-10-17T03:47:24.639Z,1.08
2023-10-17T03:49:23.174Z,1.08
2023-10-17T03:51:22.917Z,1.08
2023-10-17T03:53:24.011Z,1.08
2023-10-17T03:55:22.560Z,1.08
2023-10-17T03:57:23.054Z,1.08
2023-10-17T03:59:22.366Z,1.08
2023-10-17T04:01:25.710Z,1.08
2023-10-17T04:03:23.216Z,1.08
2023-10-17T04:05:38.390Z,1.08
2023-10-17T04:07:22.787Z,1.08
2023-10-17T04:09:22.768Z,1.08
2023-10-17T04:11:22.669Z,1.08
2023-10-17T04:13:22.620Z,1.08
2023-10-17T04:15:24.434Z,1.08
2023-10-17T04:17:22.653Z,1.08
2023-10-17T04:19:22.727Z,1.08
2023-10-17T04:21:22.917Z,1.08
2023-10-17T04:23:41.622Z,1.08
2023-10-17T04:25:22.884Z,1.08
2023-10-17T04:27:22.380Z,1.08
2023-10-17T04:29:22.039Z,1.08
2023-10-17T04:31:23.244Z,1.08
2023-10-17T04:33:23.431Z,1.08
2023-10-17T04:35:23.187Z,1.08
2023-10-17T04:37:22.644Z,1.08
2023-10-17T04:39:21.854Z,1.08
2023-10-17T04:41:22.589Z,1.08
2023-10-17T04:43:22.573Z,1.08
2023-10-17T04:45:22.938Z,1.08
2023-10-17T04:47:22.492Z,1.08
2023-10-17T04:49:23.233Z,1.08
2023-10-17T04:51:23.060Z,1.08
2023-10-17T04:53:22.431Z,1.08
2023-10-17T04:55:22.291Z,1.08
2023-10-17T04:57:25.789Z,1.08
2023-10-17T04:59:22.105Z,1.08
2023-10-17T05:01:26.152Z,1.08
2023-10-17T05:03:27.395Z,1.08
2023-10-17T05:05:22.596Z,1.08
2023-10-17T05:07:22.769Z,1.08
2023-10-17T05:09:22.114Z,1.08
2023-10-17T05:11:23.037Z,1.08
2023-10-17T05:13:22.862Z,1.08
2023-10-17T05:15:22.388Z,1.08
2023-10-17T05:17:22.933Z,1.08
2023-10-17T05:19:23.880Z,1.08
2023-10-17T05:21:22.367Z,1.08
2023-10-17T05:23:22.619Z,1.08
2023-10-17T05:25:22.495Z,1.08
2023-10-17T05:27:22.040Z,1.08
2023-10-17T05:29:44.346Z,1.08
2023-10-17T05:31:22.999Z,1.08
2023-10-17T05:33:22.557Z,1.08
2023-10-17T05:35:26.154Z,1.08
2023-10-17T05:37:22.478Z,1.08
2023-10-17T05:39:22.161Z,1.08
2023-10-17T05:41:22.765Z,1.08
2023-10-17T05:43:22.454Z,1.08
2023-10-17T05:45:22.911Z,1.08
2023-10-17T05:47:22.678Z,1.08
2023-10-17T05:49:22.593Z,1.08
2023-10-17T05:51:22.925Z,1.08
2023-10-17T05:53:22.358Z,1.08
2023-10-17T05:57:23.025Z,1.08
2023-10-17T05:59:22.298Z,1.08
2023-10-17T06:01:31.220Z,1.08
2023-10-17T06:03:23.456Z,1.08
2023-10-17T06:05:23.961Z,1.08
2023-10-17T06:07:40.759Z,1.08
2023-10-17T06:09:22.605Z,1.08
2023-10-17T06:11:22.672Z,1.08
2023-10-17T06:13:26.981Z,1.08
2023-10-17T06:15:22.186Z,1.08
2023-10-17T06:17:23.415Z,1.08
2023-10-17T06:19:26.417Z,1.08
2023-10-17T06:21:22.489Z,1.08
2023-10-17T06:23:22.081Z,1.08
2023-10-17T06:25:22.682Z,1.08
2023-10-17T06:27:22.336Z,1.08
2023-10-17T06:29:22.017Z,1.08
2023-10-17T06:31:23.002Z,1.08
2023-10-17T06:33:22.527Z,1.08
2023-10-17T06:35:22.684Z,1.08
2023-10-17T06:37:22.482Z,1.08
2023-10-17T06:39:23.544Z,1.08
2023-10-17T06:41:22.518Z,1.08
2023-10-17T06:43:22.948Z,1.08
2023-10-17T06:45:22.582Z,1.08
2023-10-17T06:47:22.261Z,1.08
2023-10-17T06:49:23.307Z,1.08
2023-10-17T06:51:22.415Z,1.08
2023-10-17T06:53:22.689Z,1.08
2023-10-17T06:55:22.571Z,1.08
2023-10-17T06:57:25.151Z,1.08
2023-10-17T06:59:22.641Z,1.08
2023-10-17T07:01:27.850Z,1.08
2023-10-17T07:03:23.695Z,1.08
2023-10-17T07:05:23.627Z,1.08
2023-10-17T07:07:24.627Z,1.08
2023-10-17T07:09:22.654Z,1.08
2023-10-17T07:11:21.861Z,1.08
2023-10-17T07:13:22.703Z,1.08
2023-10-17T07:15:22.426Z,1.08
2023-10-17T07:17:22.286Z,1.08
2023-10-17T07:19:23.722Z,1.08
2023-10-17T07:21:25.934Z,1.08
2023-10-17T07:23:24.214Z,1.08
2023-10-17T07:25:23.627Z,1.08
2023-10-17T07:27:22.245Z,1.08
2023-10-17T07:29:22.509Z,1.08
2023-10-17T07:31:23.159Z,1.08
2023-10-17T07:33:23.363Z,1.08
2023-10-17T07:35:22.481Z,1.08
2023-10-17T07:37:26.198Z,1.08
2023-10-17T07:39:22.380Z,1.08
2023-10-17T07:41:22.262Z,1.08
2023-10-17T07:43:23.074Z,1.08
2023-10-17T07:45:22.529Z,1.08
2023-10-17T07:47:22.985Z,1.08
2023-10-17T07:49:26.083Z,1.08
2023-10-17T07:51:22.579Z,1.08
2023-10-17T07:53:22.947Z,1.08
2023-10-17T07:55:22.704Z,1.08
2023-10-17T07:57:21.905Z,1.08
2023-10-17T07:59:22.477Z,1.08
2023-10-17T08:01:29.875Z,1.08
2023-10-17T08:03:23.259Z,1.08
2023-10-17T08:05:23.060Z,1.08
2023-10-17T08:07:22.744Z,1.08
2023-10-17T08:09:33.581Z,1.08
2023-10-17T08:11:22.894Z,1.08
2023-10-17T08:13:22.548Z,1.08
2023-10-17T08:15:26.182Z,1.08
2023-10-17T08:17:22.731Z,1.08
2023-10-17T08:19:24.333Z,1.08
2023-10-17T08:21:22.821Z,1.08
2023-10-17T08:23:22.292Z,1.08
2023-10-17T08:25:22.868Z,1.08
2023-10-17T08:27:22.666Z,1.08
2023-10-17T08:29:23.193Z,1.08
2023-10-17T08:31:42.882Z,1.08
2023-10-17T08:33:22.651Z,1.08
2023-10-17T08:35:25.216Z,1.08
2023-10-17T08:37:22.598Z,1.08
2023-10-17T08:39:22.871Z,1.08
2023-10-17T08:41:24.367Z,1.08
2023-10-17T08:43:23.198Z,1.08
2023-10-17T08:45:22.737Z,1.08
2023-10-17T08:47:22.304Z,1.08
2023-10-17T08:49:23.384Z,1.08
2023-10-17T08:51:39.451Z,1.08
2023-10-17T08:53:21.843Z,1.08
2023-10-17T08:55:22.489Z,1.08
2023-10-17T08:57:22.392Z,1.08
2023-10-17T08:59:22.892Z,1.08
2023-10-17T09:01:25.884Z,1.08
2023-10-17T09:03:22.132Z,1.08
2023-10-17T09:05:22.914Z,1.08
2023-10-17T09:07:22.748Z,1.08
2023-10-17T09:09:22.330Z,1.08
2023-10-17T09:11:22.850Z,1.08
2023-10-17T09:13:22.424Z,1.08
2023-10-17T09:15:22.081Z,1.08
2023-10-17T09:17:22.841Z,1.08
2023-10-17T09:19:22.521Z,1.08
2023-10-17T09:21:22.753Z,1.08
2023-10-17T09:23:22.506Z,1.08
2023-10-17T09:25:22.213Z,1.08
2023-10-17T09:27:23.026Z,1.08
2023-10-17T09:29:22.296Z,1.08
2023-10-17T09:31:28.058Z,1.08
2023-10-17T09:33:22.683Z,1.08
2023-10-17T09:35:22.987Z,1.08
2023-10-17T09:37:23.244Z,1.08
2023-10-17T09:39:37.749Z,1.08
2023-10-17T09:41:41.010Z,0.38
2023-10-17T09:43:24.454Z,0.44
2023-10-17T09:45:44.578Z,0.44
2023-10-17T09:47:23.671Z,0.44
2023-10-17T09:49:25.715Z,0.92
2023-10-17T09:51:22.964Z,0.92
2023-10-17T09:53:22.816Z,0.92
2023-10-17T09:55:24.789Z,1.22
2023-10-17T09:57:22.781Z,1.22
2023-10-17T09:59:23.328Z,1.22
2023-10-17T10:01:26.709Z,1.43
2023-10-17T10:03:39.416Z,1.43
2023-10-17T10:05:23.694Z,1.43
2023-10-17T10:07:23.059Z,1.56
2023-10-17T10:09:22.195Z,1.56
2023-10-17T10:11:22.688Z,1.56
2023-10-17T10:13:22.329Z,1.65
2023-10-17T10:15:22.765Z,1.65
2023-10-17T10:17:22.497Z,1.65
2023-10-17T10:19:22.971Z,1.71
2023-10-17T10:21:22.452Z,1.71
2023-10-17T10:23:29.174Z,1.71
2023-10-17T10:25:24.160Z,1.75
2023-10-17T10:27:22.036Z,1.75
2023-10-17T10:29:22.471Z,1.75
2023-10-17T10:31:22.395Z,1.79
2023-10-17T10:33:23.392Z,1.79
2023-10-17T10:35:22.559Z,1.79
2023-10-17T10:37:22.784Z,1.83
2023-10-17T10:39:22.447Z,1.83
2023-10-17T10:41:23.942Z,1.83
2023-10-17T10:43:22.752Z,1.87
2023-10-17T10:45:21.974Z,1.87
2023-10-17T10:47:23.875Z,1.87
2023-10-17T10:49:22.988Z,1.89
2023-10-17T10:51:22.856Z,1.89
2023-10-17T10:53:22.464Z,1.89
2023-10-17T10:55:22.231Z,1.9
2023-10-17T10:57:22.879Z,1.9
2023-10-17T10:59:24.278Z,1.9
2023-10-17T11:01:23.367Z,1.92
2023-10-17T11:03:23.073Z,1.92
2023-10-17T11:05:23.277Z,1.92
2023-10-17T11:07:23.453Z,1.96
2023-10-17T11:09:24.269Z,1.96
2023-10-17T11:11:22.425Z,1.96
2023-10-17T11:13:22.572Z,1.98
2023-10-17T11:15:40.485Z,1.98
2023-10-17T11:17:23.007Z,1.98
2023-10-17T11:19:23.141Z,1.99
2023-10-17T11:21:22.403Z,1.99
2023-10-17T11:23:22.836Z,1.99
2023-10-17T11:25:25.035Z,2
2023-10-17T11:27:33.656Z,2
2023-10-17T11:29:22.884Z,2
2023-10-17T11:31:23.481Z,2.01
2023-10-17T11:33:23.162Z,2.01
2023-10-17T11:35:22.329Z,2.01
2023-10-17T11:37:23.927Z,2.02
2023-10-17T11:39:32.351Z,2.02
2023-10-17T11:41:22.333Z,2.02
2023-10-17T11:43:22.305Z,2.03
2023-10-17T11:45:43.719Z,2.03
2023-10-17T11:47:23.425Z,2.03
2023-10-17T11:49:22.893Z,2.03
2023-10-17T11:51:22.718Z,2.03
2023-10-17T11:53:22.020Z,2.03
2023-10-17T11:55:42.447Z,2.05
2023-10-17T11:57:22.571Z,2.05
2023-10-17T11:59:21.881Z,2.05
2023-10-17T12:01:27.040Z,2.06
2023-10-17T12:03:22.624Z,2.06
2023-10-17T12:05:23.574Z,2.06
2023-10-17T12:07:22.439Z,2.07
2023-10-17T12:09:22.579Z,2.07
2023-10-17T12:11:24.203Z,2.07
2023-10-17T12:13:23.960Z,2.08
2023-10-17T12:15:22.612Z,2.08
2023-10-17T12:17:22.445Z,2.08
2023-10-17T12:19:22.719Z,2.09
2023-10-17T12:21:22.430Z,2.09
2023-10-17T12:23:22.898Z,2.09
2023-10-17T12:25:23.077Z,2.11
2023-10-17T12:27:22.056Z,2.11
2023-10-17T12:29:22.340Z,2.11
2023-10-17T12:31:22.668Z,2.11
2023-10-17T12:33:23.127Z,2.11
2023-10-17T12:35:22.626Z,2.11
2023-10-17T12:37:23.358Z,2.12
2023-10-17T12:39:22.411Z,2.12
2023-10-17T12:41:22.976Z,2.12
2023-10-17T12:43:24.514Z,2.12
2023-10-17T12:45:22.473Z,2.12
2023-10-17T12:47:23.151Z,2.14
2023-10-17T12:49:25.816Z,2.14
2023-10-17T12:51:22.350Z,2.17
2023-10-17T12:53:23.210Z,2.17
2023-10-17T12:55:22.259Z,2.17
2023-10-17T12:57:22.424Z,2.19
2023-10-17T12:59:22.143Z,2.19
2023-10-17T13:01:25.654Z,2.19
2023-10-17T13:03:23.519Z,2.22
2023-10-17T13:05:24.936Z,2.22
2023-10-17T13:07:22.899Z,2.22
2023-10-17T13:09:22.342Z,2.23
2023-10-17T13:11:23.831Z,2.23
2023-10-17T13:13:23.355Z,2.23
2023-10-17T13:15:22.382Z,2.24
2023-10-17T13:17:22.817Z,2.24
2023-10-17T13:19:23.377Z,2.24
2023-10-17T13:22:01.528Z,2.23
2023-10-17T13:23:22.618Z,2.23
2023-10-17T13:25:22.345Z,2.23
2023-10-17T13:27:42.301Z,2.23
2023-10-17T13:29:22.949Z,2.23
2023-10-17T13:31:23.390Z,2.23
2023-10-17T13:33:22.647Z,2.23
2023-10-17T13:35:26.492Z,2.23
2023-10-17T13:37:22.712Z,2.23
2023-10-17T13:39:24.567Z,2.26
2023-10-17T13:41:22.795Z,2.26
2023-10-17T13:43:22.600Z,2.26
2023-10-17T13:45:21.854Z,2.29
2023-10-17T13:47:23.115Z,2.29
2023-10-17T13:49:23.346Z,2.29
2023-10-17T13:51:22.486Z,2.3
2023-10-17T13:53:22.033Z,2.3
2023-10-17T13:55:22.909Z,2.3
2023-10-17T13:57:22.269Z,2.28
2023-10-17T13:59:23.132Z,2.28
2023-10-17T14:01:28.296Z,2.28
2023-10-17T14:03:25.789Z,2.26
2023-10-17T14:05:23.048Z,2.26
2023-10-17T14:07:22.857Z,2.26
2023-10-17T14:09:22.642Z,2.24
2023-10-17T14:11:22.600Z,2.24
2023-10-17T14:13:22.845Z,2.24
2023-10-17T14:15:22.407Z,2.26
2023-10-17T14:17:23.828Z,2.26
2023-10-17T14:19:23.285Z,2.26
2023-10-17T14:21:22.028Z,2.26
2023-10-17T14:23:22.446Z,2.26
2023-10-17T14:25:22.160Z,2.26
2023-10-17T14:27:22.809Z,2.29
2023-10-17T14:29:22.215Z,2.29
2023-10-17T14:31:23.132Z,2.29
2023-10-17T14:33:22.916Z,2.3
2023-10-17T14:35:22.280Z,2.3
2023-10-17T14:37:24.638Z,2.3
2023-10-17T14:39:22.813Z,2.31
2023-10-17T14:41:22.857Z,2.31
2023-10-17T14:43:22.631Z,2.31
2023-10-17T14:45:22.778Z,2.33
2023-10-17T14:47:22.928Z,2.33
2023-10-17T14:49:22.254Z,2.33
2023-10-17T14:51:22.673Z,2.33
2023-10-17T14:53:26.928Z,2.33
2023-10-17T14:55:22.495Z,2.33
2023-10-17T14:57:22.093Z,2.35
2023-10-17T14:59:22.552Z,2.35
2023-10-17T15:01:28.412Z,2.35
2023-10-17T15:03:22.468Z,2.35
2023-10-17T15:05:23.606Z,2.35
2023-10-17T15:07:22.336Z,2.35
2023-10-17T15:09:22.505Z,2.35
2023-10-17T15:11:22.919Z,2.35
2023-10-17T15:13:23.153Z,2.35
2023-10-17T15:15:22.276Z,2.37
2023-10-17T15:17:26.191Z,2.37
2023-10-17T15:19:22.729Z,2.37
2023-10-17T15:21:22.391Z,2.39
2023-10-17T15:23:22.856Z,2.39
2023-10-17T15:25:23.644Z,2.39
2023-10-17T15:27:23.201Z,2.42
2023-10-17T15:29:22.372Z,2.42
2023-10-17T15:31:44.201Z,2.42
2023-10-17T15:33:22.851Z,2.43
2023-10-17T15:35:22.017Z,2.43
2023-10-17T15:37:26.296Z,2.43
2023-10-17T15:39:22.325Z,2.43
2023-10-17T15:41:22.309Z,2.43
2023-10-17T15:43:22.757Z,2.43
2023-10-17T15:45:22.328Z,2.43
2023-10-17T15:47:22.375Z,2.43
2023-10-17T15:49:23.240Z,2.43
2023-10-17T15:51:22.808Z,2.43
2023-10-17T15:53:22.172Z,2.43
2023-10-17T15:55:22.801Z,2.43
2023-10-17T15:57:22.330Z,2.43
2023-10-17T15:59:22.932Z,2.43
2023-10-17T16:01:25.061Z,2.43
2023-10-17T16:03:22.659Z,2.44
2023-10-17T16:05:23.634Z,2.44
2023-10-17T16:07:22.540Z,2.44
2023-10-17T16:09:22.214Z,2.43
2023-10-17T16:11:22.702Z,2.43
2023-10-17T16:13:22.341Z,2.43
2023-10-17T16:15:22.597Z,2.44
2023-10-17T16:17:23.626Z,2.44
2023-10-17T16:19:24.001Z,2.44
2023-10-17T16:21:23.317Z,2.66
2023-10-17T16:23:22.819Z,2.66
2023-10-17T16:25:22.793Z,2.66
2023-10-17T16:27:22.400Z,2.77
2023-10-17T16:29:22.922Z,2.77
2023-10-17T16:31:23.140Z,2.77
2023-10-17T16:33:22.774Z,2.63
2023-10-17T16:35:22.144Z,2.63
2023-10-17T16:37:22.889Z,2.63
2023-10-17T16:39:22.224Z,2.55
2023-10-17T16:41:23.446Z,2.55
2023-10-17T16:43:22.767Z,2.55
2023-10-17T16:45:22.062Z,2.5
2023-10-17T16:47:23.471Z,2.5
2023-10-17T16:49:22.838Z,2.5
2023-10-17T16:51:22.390Z,2.47
2023-10-17T16:53:23.000Z,2.47
2023-10-17T16:55:22.725Z,2.47
2023-10-17T16:57:22.190Z,2.44
2023-10-17T16:59:22.633Z,2.44
2023-10-17T17:01:31.024Z,2.44
2023-10-17T17:03:23.374Z,2.42
2023-10-17T17:05:22.850Z,2.42
2023-10-17T17:07:22.468Z,2.42
2023-10-17T17:09:22.524Z,2.41
2023-10-17T17:11:22.326Z,2.41
2023-10-17T17:13:22.930Z,2.41
2023-10-17T17:15:22.673Z,2.39
2023-10-17T17:17:22.484Z,2.39
2023-10-17T17:21:22.614Z,2.41
2023-10-17T17:23:22.516Z,2.41
2023-10-17T17:25:22.379Z,2.41
2023-10-17T17:27:25.528Z,2.41
2023-10-17T17:29:22.474Z,2.41
2023-10-17T17:31:23.289Z,2.41
2023-10-17T17:33:22.954Z,2.44
2023-10-17T17:35:22.290Z,2.44
2023-10-17T17:37:22.501Z,2.44
2023-10-17T17:39:23.137Z,2.55
2023-10-17T17:41:22.796Z,2.55
2023-10-17T17:43:22.963Z,2.55
2023-10-17T17:45:22.743Z,2.63
2023-10-17T17:47:23.065Z,2.63
2023-10-17T17:49:23.218Z,2.63
2023-10-17T17:51:22.800Z,2.58
2023-10-17T17:53:22.225Z,2.58
2023-10-17T17:55:23.042Z,2.58
2023-10-17T17:57:22.327Z,2.54
2023-10-17T17:59:22.618Z,2.54
2023-10-17T18:01:27.551Z,2.54
2023-10-17T18:03:22.961Z,2.48
2023-10-17T18:05:48.652Z,2.48
2023-10-17T18:07:22.220Z,2.48
2023-10-17T18:09:22.423Z,2.46
2023-10-17T18:11:22.346Z,2.46
2023-10-17T18:13:23.047Z,2.46
2023-10-17T18:15:22.374Z,2.46
2023-10-17T18:17:23.304Z,2.46
2023-10-17T18:19:22.753Z,2.46
2023-10-17T18:21:22.083Z,2.46
2023-10-17T18:23:22.710Z,2.46
2023-10-17T18:25:22.454Z,2.46
2023-10-17T18:27:25.281Z,2.46
2023-10-17T18:29:22.308Z,2.46
2023-10-17T18:31:23.347Z,2.46
2023-10-17T18:33:22.703Z,2.46
2023-10-17T18:35:24.762Z,2.46
2023-10-17T18:37:22.670Z,2.46
2023-10-17T18:39:22.129Z,2.46
2023-10-17T18:41:22.629Z,2.46
2023-10-17T18:43:22.354Z,2.46
2023-10-17T18:45:40.042Z,2.47
2023-10-17T18:47:22.681Z,2.47
2023-10-17T18:49:22.264Z,2.47
2023-10-17T18:51:22.667Z,2.48
2023-10-17T18:53:22.265Z,2.48
2023-10-17T18:55:23.223Z,2.48
2023-10-17T18:57:22.479Z,2.51
2023-10-17T18:59:22.089Z,2.51
2023-10-17T19:01:45.865Z,2.51
2023-10-17T19:03:22.752Z,2.52
2023-10-17T19:05:21.887Z,2.52
2023-10-17T19:07:23.526Z,2.52
2023-10-17T19:09:21.998Z,2.52
2023-10-17T19:11:22.847Z,2.52
2023-10-17T19:13:39.417Z,2.52
2023-10-17T19:15:22.846Z,2.54
2023-10-17T19:17:26.397Z,2.54
2023-10-17T19:19:23.089Z,2.54
2023-10-17T19:21:22.486Z,2.54
2023-10-17T19:23:22.935Z,2.54
2023-10-17T19:25:22.491Z,2.54
2023-10-17T19:27:22.930Z,2.55
2023-10-17T19:29:22.590Z,2.55
2023-10-17T19:31:23.133Z,2.55
2023-10-17T19:33:22.409Z,2.55
2023-10-17T19:35:24.783Z,2.55
2023-10-17T19:37:22.405Z,2.55
2023-10-17T19:39:23.106Z,2.56
2023-10-17T19:41:24.883Z,2.56
2023-10-17T19:43:22.078Z,2.56
2023-10-17T19:45:22.804Z,2.56
2023-10-17T19:47:22.890Z,2.56
2023-10-17T19:49:23.145Z,2.56
2023-10-17T19:51:22.608Z,2.58
2023-10-17T19:53:22.246Z,2.58
2023-10-17T19:55:22.304Z,2.58
2023-10-17T19:57:23.152Z,2.58
2023-10-17T19:59:22.307Z,2.58
2023-10-17T20:01:28.171Z,2.58
2023-10-17T20:03:23.303Z,2.59
2023-10-17T20:05:22.813Z,2.59
2023-10-17T20:07:22.992Z,2.59
2023-10-17T20:09:22.282Z,2.59
2023-10-17T20:11:25.678Z,2.59
2023-10-17T20:13:22.680Z,2.59
2023-10-17T20:15:22.407Z,2.59
2023-10-17T20:17:23.334Z,2.59
2023-10-17T20:19:22.798Z,2.59
2023-10-17T20:21:22.330Z,2.62
2023-10-17T20:23:22.727Z,2.62
2023-10-17T20:25:22.955Z,2.62
2023-10-17T20:27:22.187Z,2.63
2023-10-17T20:29:23.865Z,2.63
2023-10-17T20:31:39.967Z,2.63
2023-10-17T20:33:22.686Z,2.65
2023-10-17T20:35:22.778Z,2.65
2023-10-17T20:37:22.497Z,2.65
2023-10-17T20:39:22.848Z,2.66
2023-10-17T20:41:22.639Z,2.66
2023-10-17T20:43:22.696Z,2.66
2023-10-17T20:45:22.704Z,2.66
2023-10-17T20:47:29.476Z,2.66
2023-10-17T20:49:23.201Z,2.66
2023-10-17T20:51:22.469Z,2.68
2023-10-17T20:53:25.495Z,2.68
2023-10-17T20:55:22.982Z,2.68
2023-10-17T20:57:40.154Z,2.69
2023-10-17T20:59:22.645Z,2.69
2023-10-17T21:01:25.582Z,2.69
2023-10-17T21:03:22.179Z,2.69
2023-10-17T21:05:22.900Z,2.69
2023-10-17T21:07:22.186Z,2.69
2023-10-17T21:09:22.540Z,2.69
2023-10-17T21:11:22.564Z,2.69
2023-10-17T21:13:22.966Z,2.69
2023-10-17T21:15:22.507Z,2.69
2023-10-17T21:17:22.459Z,2.69
2023-10-17T21:19:23.328Z,2.69
2023-10-17T21:21:22.872Z,2.69
2023-10-17T21:23:22.346Z,2.69
2023-10-17T21:25:22.763Z,2.69
2023-10-17T21:27:22.288Z,2.71
2023-10-17T21:29:22.792Z,2.71
2023-10-17T21:31:23.040Z,2.71
2023-10-17T21:33:22.612Z,2.71
2023-10-17T21:35:22.725Z,2.71
2023-10-17T21:37:22.471Z,2.71
2023-10-17T21:39:24.425Z,2.71
2023-10-17T21:41:22.721Z,2.71
2023-10-17T21:43:22.338Z,2.71
2023-10-17T21:45:22.528Z,2.72
2023-10-17T21:47:22.810Z,2.72
2023-10-17T21:49:22.886Z,2.72
2023-10-17T21:51:41.821Z,2.73
2023-10-17T21:53:22.767Z,2.73
2023-10-17T21:55:22.546Z,2.73
2023-10-17T21:57:21.973Z,2.73
2023-10-17T21:59:23.336Z,2.73
2023-10-17T22:01:23.695Z,2.73
2023-10-17T22:03:23.904Z,2.75
2023-10-17T22:05:22.240Z,2.75
2023-10-17T22:07:22.835Z,2.75
2023-10-17T22:09:22.419Z,2.75
2023-10-17T22:11:23.043Z,2.75
2023-10-17T22:13:22.721Z,2.75
2023-10-17T22:15:22.144Z,2.75
2023-10-17T22:17:24.137Z,2.75
2023-10-17T22:19:22.992Z,2.75
2023-10-17T22:21:22.950Z,2.75
2023-10-17T22:23:21.986Z,2.75
2023-10-17T22:25:41.211Z,2.75
2023-10-17T22:27:24.117Z,2.78
2023-10-17T22:29:23.012Z,2.78
2023-10-17T22:31:23.132Z,2.78
2023-10-17T22:33:26.783Z,2.78
2023-10-17T22:35:22.025Z,2.78
2023-10-17T22:37:22.326Z,2.78
2023-10-17T22:39:22.626Z,2.78
2023-10-17T22:41:22.232Z,2.78
2023-10-17T22:43:24.798Z,2.78
2023-10-17T22:45:22.014Z,2.78
2023-10-17T22:47:23.098Z,2.78
2023-10-17T22:49:22.796Z,2.78
2023-10-17T22:51:23.097Z,2.8
2023-10-17T22:53:22.235Z,2.8
2023-10-17T22:55:23.251Z,2.8
2023-10-17T22:57:22.571Z,2.81
2023-10-17T22:59:22.101Z,2.81
2023-10-17T23:01:30.153Z,2.81
2023-10-17T23:03:23.865Z,2.81
2023-10-17T23:05:22.174Z,2.81
2023-10-17T23:07:22.719Z,2.81
2023-10-17T23:09:22.458Z,2.84
2023-10-17T23:11:23.069Z,2.84
2023-10-17T23:13:22.664Z,2.84
2023-10-17T23:15:21.963Z,2.84
2023-10-17T23:17:22.438Z,2.84
2023-10-17T23:19:23.243Z,2.84
2023-10-17T23:21:22.969Z,2.84
2023-10-17T23:23:22.539Z,2.84
2023-10-17T23:25:22.382Z,2.84
2023-10-17T23:27:22.559Z,2.84
2023-10-17T23:29:22.329Z,2.84
2023-10-17T23:31:23.599Z,2.84
2023-10-17T23:33:22.677Z,2.84
2023-10-17T23:35:22.157Z,2.84
2023-10-17T23:37:23.099Z,2.84
2023-10-17T23:39:24.899Z,2.86
2023-10-17T23:41:22.999Z,2.86
2023-10-17T23:43:23.329Z,2.86
2023-10-17T23:45:22.589Z,2.86
2023-10-17T23:47:23.448Z,2.86
2023-10-17T23:49:22.891Z,2.86
2023-10-17T23:51:22.280Z,2.88
2023-10-17T23:53:22.971Z,2.88
2023-10-17T23:55:22.873Z,2.88
2023-10-17T23:57:22.382Z,2.89
2023-10-17T23:59:22.855Z,2.89
